Time;durP1;ratioP1;P1;durP2;ratioP2;P2;SDS_P1;SDS_P2;PMS_P1;PMS_P2;Temp;Humidity;BMP_temperature;BMP_pressure;BME280_temperature;BME280_humidity;BME280_pressure;Samples;Min_cycle;Max_cycle;Signal;HPM_P1;HPM_P2
2022/05/17 00:04:08;;;;;;;118.80;17.63;;;;;;;15.24;69.16;100325.69;10388774;28;20499;-64
2022/05/17 00:09:10;;;;;;;183.23;30.17;;;;;;;15.23;69.15;100316.94;10388927;28;20227;-64
2022/05/17 00:14:13;;;;;;;201.65;16.13;;;;;;;15.16;69.28;100312.22;10389410;28;20463;-65
2022/05/17 00:19:16;;;;;;;78.63;16.63;;;;;;;15.14;69.07;100311.50;10386403;28;20053;-66
2022/05/17 00:24:21;;;;;;;193.38;26.23;;;;;;;15.14;68.88;100309.69;10388283;28;20521;-65
2022/05/17 00:29:24;;;;;;;86.72;17.17;;;;;;;15.12;69.23;100319.50;10387396;28;20132;-65
2022/05/17 00:34:27;;;;;;;84.93;15.43;;;;;;;15.28;68.71;100321.88;10388034;28;20072;-65
2022/05/17 00:39:29;;;;;;;59.95;14.25;;;;;;;15.32;68.65;100323.34;10388132;28;20053;-65
2022/05/17 00:44:43;;;;;;;99.53;14.52;;;;;;;15.33;68.66;100320.59;10388166;28;20532;-65
2022/05/17 00:49:51;;;;;;;69.20;18.27;;;;;;;15.33;68.62;100330.28;10386293;28;20097;-66
2022/05/17 00:54:56;;;;;;;82.43;14.35;;;;;;;15.35;68.34;100325.72;10387290;28;20541;-65
2022/05/17 01:00:02;;;;;;;55.45;14.80;;;;;;;15.44;67.78;100330.34;10387180;28;20558;-65
2022/05/17 01:05:05;;;;;;;106.03;15.90;;;;;;;15.43;67.78;100332.13;10385891;28;20046;-65
2022/05/17 01:10:08;;;;;;;98.80;20.17;;;;;;;15.45;67.63;100339.91;10386445;28;20060;-65
2022/05/17 01:15:11;;;;;;;55.17;13.13;;;;;;;15.43;67.88;100339.19;10387439;28;20085;-65
2022/05/17 01:20:13;;;;;;;37.85;14.45;;;;;;;15.42;67.85;100332.25;10384754;28;20552;-65
2022/05/17 01:25:15;;;;;;;88.93;15.05;;;;;;;15.46;67.65;100338.13;10387422;28;20124;-65
2022/05/17 01:30:24;;;;;;;102.82;21.45;;;;;;;15.35;67.65;100334.47;10385673;28;20466;-65
2022/05/17 01:35:26;;;;;;;347.83;20.17;;;;;;;15.13;67.62;100342.28;10386157;28;20128;-65
2022/05/17 01:40:28;;;;;;;157.55;18.92;;;;;;;15.05;67.98;100338.50;10383217;28;20160;-67
2022/05/17 01:45:30;;;;;;;71.47;15.07;;;;;;;15.04;68.20;100335.00;10385751;28;20064;-67
2022/05/17 01:50:32;;;;;;;277.77;34.28;;;;;;;14.93;68.20;100327.06;10378779;28;20053;-66
2022/05/17 01:55:34;;;;;;;256.15;24.08;;;;;;;14.99;68.28;100333.66;10381011;28;20466;-67
2022/05/17 02:00:36;;;;;;;89.40;15.88;;;;;;;15.06;68.27;100324.38;10383416;28;20063;-67
2022/05/17 02:05:38;;;;;;;208.00;16.92;;;;;;;15.05;68.17;100328.81;10388953;28;20083;-65
2022/05/17 02:10:40;;;;;;;151.70;17.27;;;;;;;14.99;68.24;100331.03;10391110;28;20049;-66
2022/05/17 02:15:42;;;;;;;258.60;20.92;;;;;;;14.98;68.19;100329.38;10390547;28;20519;-67
2022/05/17 02:20:44;;;;;;;87.22;17.15;;;;;;;15.04;67.97;100332.38;10390302;28;20415;-65
2022/05/17 02:25:46;;;;;;;108.88;16.00;;;;;;;15.03;67.87;100338.63;10389176;28;20465;-65
2022/05/17 02:30:48;;;;;;;123.45;17.63;;;;;;;15.08;67.95;100340.94;10390154;28;20455;-67
2022/05/17 02:35:49;;;;;;;131.38;16.48;;;;;;;14.96;67.67;100354.97;10390333;28;20386;-67
2022/05/17 02:40:51;;;;;;;83.38;15.05;;;;;;;14.87;68.15;100355.59;10388375;28;20475;-65
2022/05/17 02:45:53;;;;;;;108.20;16.83;;;;;;;14.87;67.98;100352.97;10390130;28;20721;-65
2022/05/17 02:50:55;;;;;;;141.20;16.42;;;;;;;14.82;67.83;100352.47;10386531;28;20095;-67
2022/05/17 02:55:57;;;;;;;99.53;16.50;;;;;;;14.78;67.87;100361.53;10388812;28;20474;-67
2022/05/17 03:00:59;;;;;;;74.75;14.95;;;;;;;14.77;68.16;100359.84;10390169;28;20081;-67
2022/05/17 03:06:01;;;;;;;139.20;16.95;;;;;;;14.73;67.89;100359.22;10384098;28;20140;-65
2022/05/17 03:11:05;;;;;;;74.07;13.35;;;;;;;14.75;68.13;100372.28;10382948;28;20406;-65
2022/05/17 03:16:07;;;;;;;110.15;15.68;;;;;;;14.75;68.02;100367.00;10382775;28;20049;-67
2022/05/17 03:21:12;;;;;;;89.93;12.35;;;;;;;14.62;67.81;100376.69;10389948;28;20482;-65
2022/05/17 03:26:13;;;;;;;346.77;24.73;;;;;;;14.43;67.58;100370.03;10390523;28;20462;-65
2022/05/17 03:31:18;;;;;;;295.92;16.75;;;;;;;14.41;67.65;100385.09;10390902;28;20395;-65
2022/05/17 03:36:20;;;;;;;294.33;20.25;;;;;;;14.21;67.66;100392.66;10389432;28;20060;-67
2022/05/17 03:41:22;;;;;;;145.82;13.82;;;;;;;14.28;68.12;100388.66;10390672;28;20060;-67
2022/05/17 03:46:23;;;;;;;435.42;20.73;;;;;;;14.25;67.72;100392.34;10388801;28;20233;-67
2022/05/17 03:51:25;;;;;;;128.93;12.18;;;;;;;14.27;67.75;100387.81;10389441;28;20435;-65
2022/05/17 03:56:27;;;;;;;515.45;22.60;;;;;;;14.42;67.40;100393.84;10386966;28;20144;-66
2022/05/17 04:01:29;;;;;;;119.97;11.93;;;;;;;14.34;67.40;100406.66;10386407;28;20131;-67
2022/05/17 04:06:31;;;;;;;133.75;11.60;;;;;;;14.23;67.50;100407.38;10385149;28;20260;-67
2022/05/17 04:11:34;;;;;;;385.17;21.10;;;;;;;14.27;67.42;100402.75;10370308;28;20047;-65
2022/05/17 04:16:38;;;;;;;134.60;11.90;;;;;;;14.26;67.51;100401.09;10387827;28;20138;-65
2022/05/17 04:21:40;;;;;;;288.13;17.58;;;;;;;14.23;67.55;100402.13;10389315;28;20057;-65
2022/05/17 04:26:42;;;;;;;169.10;11.52;;;;;;;14.33;67.66;100405.81;10369624;28;20049;-64
2022/05/17 04:31:44;;;;;;;127.75;11.63;;;;;;;14.41;67.70;100406.13;10387551;28;20138;-65
2022/05/17 04:36:46;;;;;;;116.32;11.18;;;;;;;14.41;67.40;100411.41;10387166;28;20053;-64
2022/05/17 04:41:48;;;;;;;301.05;12.02;;;;;;;14.40;67.35;100409.75;10388664;28;20152;-65
2022/05/17 04:46:49;;;;;;;538.63;22.30;;;;;;;14.34;67.07;100415.41;10387373;28;20367;-65
2022/05/17 04:51:53;;;;;;;258.33;15.35;;;;;;;14.43;67.11;100412.16;10386000;28;20601;-65
2022/05/17 04:56:54;;;;;;;475.65;22.15;;;;;;;14.38;66.81;100422.16;10385964;28;20046;-65
2022/05/17 05:01:57;;;;;;;305.92;16.80;;;;;;;14.25;67.10;100436.22;10384553;28;20072;-66
2022/05/17 05:06:59;;;;;;;286.67;16.77;;;;;;;14.15;67.06;100451.78;10386296;28;20088;-66
2022/05/17 05:12:01;;;;;;;388.08;25.20;;;;;;;14.17;67.34;100444.63;10386585;28;20123;-66
2022/05/17 05:17:03;;;;;;;232.15;16.85;;;;;;;14.31;67.43;100449.81;10386584;28;20509;-65
2022/05/17 05:22:04;;;;;;;267.73;15.95;;;;;;;14.46;67.10;100437.41;10385274;28;20493;-65
2022/05/17 05:27:06;;;;;;;430.60;22.45;;;;;;;14.41;66.28;100458.78;10385416;28;20547;-65
2022/05/17 05:32:08;;;;;;;292.42;14.52;;;;;;;14.29;66.70;100467.50;10382280;28;20064;-66
2022/05/17 05:37:10;;;;;;;481.40;29.10;;;;;;;14.34;66.27;100475.94;10381493;28;20091;-67
2022/05/17 05:42:12;;;;;;;349.50;18.77;;;;;;;14.42;66.54;100476.25;10382403;28;20081;-66
2022/05/17 05:47:14;;;;;;;381.42;25.73;;;;;;;14.68;65.79;100466.63;10383354;28;20052;-67
2022/05/17 05:52:16;;;;;;;356.35;25.48;;;;;;;14.69;66.06;100478.00;10382128;28;20049;-66
2022/05/17 05:57:18;;;;;;;279.45;20.23;;;;;;;14.82;65.87;100479.69;10382135;28;20085;-66
2022/05/17 06:02:20;;;;;;;189.20;14.82;;;;;;;15.08;66.25;100480.53;10366737;28;20735;-66
2022/05/17 06:07:22;;;;;;;256.05;25.05;;;;;;;15.45;65.57;100476.16;10384243;28;20141;-66
2022/05/17 06:12:23;;;;;;;315.83;17.85;;;;;;;15.25;64.98;100469.66;10384423;28;20114;-66
2022/05/17 06:17:28;;;;;;;210.60;14.73;;;;;;;15.28;65.21;100466.81;10382748;28;20135;-66
2022/05/17 06:22:31;;;;;;;59.03;11.48;;;;;;;15.65;64.88;100470.34;10380244;28;20146;-66
2022/05/17 06:27:33;;;;;;;64.25;14.05;;;;;;;15.91;63.83;100470.13;10364539;28;20512;-66
2022/05/17 06:32:36;;;;;;;29.30;10.40;;;;;;;16.09;63.17;100465.28;10383397;28;20089;-66
2022/05/17 06:37:38;;;;;;;17.17;10.55;;;;;;;16.32;62.43;100464.44;10383675;28;20049;-66
2022/05/17 06:42:40;;;;;;;19.25;10.82;;;;;;;16.50;62.02;100471.00;10383582;28;20049;-66
2022/05/17 06:47:42;;;;;;;198.77;17.88;;;;;;;16.15;62.63;100473.59;10381466;28;20045;-66
2022/05/17 06:52:46;;;;;;;116.47;16.02;;;;;;;15.80;63.33;100483.25;10379704;28;20103;-66
2022/05/17 06:57:50;;;;;;;32.97;11.55;;;;;;;16.04;63.34;100489.38;10380819;28;20050;-66
2022/05/17 07:02:51;;;;;;;31.17;10.38;;;;;;;16.42;62.08;100483.03;10381481;28;20111;-66
2022/05/17 07:07:54;;;;;;;24.15;13.48;;;;;;;16.43;62.14;100488.22;10374195;28;20144;-66
2022/05/17 07:13:07;;;;;;;22.25;10.40;;;;;;;16.72;61.46;100486.03;10383731;28;20089;-66
2022/05/17 07:18:14;;;;;;;13.68;9.63;;;;;;;17.08;60.83;100485.00;10383221;28;20049;-67
2022/05/17 07:23:17;;;;;;;12.00;10.80;;;;;;;17.68;59.25;100488.13;10384513;28;20057;-65
2022/05/17 07:28:22;;;;;;;13.82;10.18;;;;;;;17.75;59.20;100489.31;10381231;28;20100;-65
2022/05/17 07:33:24;;;;;;;11.40;10.15;;;;;;;18.33;58.54;100491.56;10382671;28;20057;-65
2022/05/17 07:38:26;;;;;;;10.45;8.52;;;;;;;19.51;56.28;100486.66;10381641;28;20054;-66
2022/05/17 07:43:27;;;;;;;12.00;7.70;;;;;;;20.77;52.73;100479.50;10383594;28;20096;-65
2022/05/17 07:48:29;;;;;;;9.85;8.25;;;;;;;21.13;51.98;100479.69;10362475;28;20091;-66
2022/05/17 07:53:31;;;;;;;10.07;8.23;;;;;;;20.92;51.78;100478.09;10374571;28;20065;-66
2022/05/17 07:58:33;;;;;;;9.32;8.25;;;;;;;21.34;50.76;100478.50;10379116;28;20392;-66
2022/05/17 08:03:34;;;;;;;9.77;7.47;;;;;;;21.78;50.78;100467.03;10381682;28;20607;-66
2022/05/17 08:08:36;;;;;;;10.05;7.78;;;;;;;22.49;49.74;100475.06;10387686;28;20464;-66
2022/05/17 08:13:39;;;;;;;9.40;6.72;;;;;;;23.34;48.28;100464.44;10388146;28;20146;-66
2022/05/17 08:19:00;;;;;;;9.82;7.47;;;;;;;24.11;45.61;100465.06;10383975;28;20053;-66
2022/05/17 08:24:02;;;;;;;12.48;6.47;;;;;;;23.77;46.91;100458.97;10383342;28;20060;-66
2022/05/17 08:29:04;;;;;;;11.73;7.40;;;;;;;23.58;47.02;100456.56;10384419;28;20477;-67
2022/05/17 08:34:10;;;;;;;15.32;7.50;;;;;;;23.57;46.94;100457.56;10381092;28;20045;-67
2022/05/17 08:39:12;;;;;;;12.98;7.40;;;;;;;23.57;47.48;100448.72;10384805;28;20095;-67
2022/05/17 08:44:42;;;;;;;10.65;5.53;;;;;;;24.28;46.80;100447.19;10383495;28;20337;-68
2022/05/17 08:49:43;;;;;;;11.55;6.80;;;;;;;24.71;44.83;100448.66;10383849;28;20061;-68
2022/05/17 08:55:00;;;;;;;8.30;6.47;;;;;;;24.33;44.96;100446.72;10383352;28;20143;-67
2022/05/17 09:00:14;;;;;;;9.68;6.50;;;;;;;24.07;46.72;100446.84;10376428;28;20075;-67
2022/05/17 09:05:29;;;;;;;9.73;6.20;;;;;;;24.33;45.99;100442.16;10379335;28;20046;-68
2022/05/17 09:10:37;;;;;;;12.20;5.68;;;;;;;24.38;45.10;100447.03;10383067;28;20489;-67
2022/05/17 09:15:39;;;;;;;8.45;5.60;;;;;;;24.73;45.36;100434.16;10386091;28;20045;-69
2022/05/17 09:20:43;;;;;;;8.90;5.13;;;;;;;25.56;43.10;100435.38;10385800;28;20634;-69
2022/05/17 09:25:51;;;;;;;13.02;4.88;;;;;;;25.76;42.62;100436.59;10385380;28;20148;-68
2022/05/17 09:31:15;;;;;;;10.52;5.20;;;;;;;25.96;40.60;100433.50;10383242;28;20053;-69
2022/05/17 09:36:23;;;;;;;8.57;4.07;;;;;;;25.48;41.45;100432.75;10378645;28;20136;-69
2022/05/17 09:41:29;;;;;;;10.15;2.83;;;;;;;25.95;39.84;100426.41;10380317;28;20632;-68
2022/05/17 09:46:41;;;;;;;12.23;4.90;;;;;;;26.35;39.36;100426.97;10379821;28;20545;-69
2022/05/17 09:57:31;;;;;;;6.90;2.60;;;;;;;25.95;37.71;100421.06;10375973;28;20541;-69
2022/05/17 10:02:38;;;;;;;7.95;2.58;;;;;;;26.36;38.61;100425.97;10377958;28;20730;-68
2022/05/17 10:07:41;;;;;;;7.05;2.20;;;;;;;26.55;37.65;100413.84;10380997;28;20084;-67
2022/05/17 10:12:44;;;;;;;6.72;2.42;;;;;;;26.33;36.61;100412.91;10382131;28;20144;-68
2022/05/17 10:18:01;;;;;;;6.03;2.38;;;;;;;26.35;37.93;100416.25;10383950;28;20858;-67
2022/05/17 10:23:29;;;;;;;8.50;2.30;;;;;;;26.40;36.66;100411.19;10381072;28;20144;-68
2022/05/17 10:28:59;;;;;;;6.40;2.15;;;;;;;26.23;35.54;100406.13;10381719;28;20458;-68
2022/05/17 10:34:14;;;;;;;6.55;1.80;;;;;;;26.16;35.03;100400.63;10381377;28;20049;-68
2022/05/17 10:39:37;;;;;;;5.47;1.65;;;;;;;26.38;34.30;100394.44;10381523;28;20138;-68
2022/05/17 10:44:59;;;;;;;2.97;1.23;;;;;;;25.61;33.54;100394.69;10381604;28;20140;-68
2022/05/17 10:50:10;;;;;;;6.75;2.05;;;;;;;25.30;35.93;100394.66;10380824;28;20136;-67
2022/05/17 10:55:28;;;;;;;3.55;1.40;;;;;;;25.46;33.80;100389.25;10380609;28;20075;-67
2022/05/17 11:00:37;;;;;;;6.90;1.80;;;;;;;25.11;33.81;100379.00;10381251;28;20573;-68
2022/05/17 11:05:54;;;;;;;4.97;1.77;;;;;;;24.65;34.98;100380.66;10378516;28;20049;-67
2022/05/17 11:11:34;;;;;;;5.18;1.98;;;;;;;24.45;35.30;100375.84;10382329;28;20089;-68
2022/05/17 11:16:48;;;;;;;10.10;1.80;;;;;;;24.84;37.06;100361.53;10378569;28;20468;-68
2022/05/17 11:21:55;;;;;;;4.85;1.63;;;;;;;25.15;35.18;100366.94;10379893;28;20512;-68
2022/05/17 11:26:57;;;;;;;4.97;1.52;;;;;;;25.28;35.79;100356.50;10374068;28;20080;-68
2022/05/17 11:32:17;;;;;;;5.63;1.70;;;;;;;25.51;35.28;100359.25;10371973;28;20128;-68
2022/05/17 11:37:37;;;;;;;5.25;1.88;;;;;;;25.29;35.69;100346.59;10386404;28;20049;-68
2022/05/17 11:48:42;;;;;;;5.22;1.50;;;;;;;25.59;33.71;100343.94;10383777;28;20104;-68
2022/05/17 11:53:49;;;;;;;5.85;1.65;;;;;;;25.59;32.88;100325.19;10383572;28;20077;-68
2022/05/17 11:58:57;;;;;;;6.15;1.60;;;;;;;25.92;33.50;100333.00;10382923;28;20048;-68
2022/05/17 12:04:00;;;;;;;5.30;1.60;;;;;;;25.77;33.71;100325.72;10377559;28;20095;-68
2022/05/17 12:09:25;;;;;;;3.17;1.40;;;;;;;25.94;35.39;100313.00;10387563;28;20049;-68
2022/05/17 12:14:48;;;;;;;5.28;1.67;;;;;;;26.53;33.22;100305.91;10383866;28;20046;-68
2022/05/17 12:20:11;;;;;;;4.25;1.60;;;;;;;26.92;32.89;100302.94;10374397;28;20057;-68
2022/05/17 12:25:34;;;;;;;4.03;1.50;;;;;;;26.73;31.89;100306.22;10387135;28;20053;-69
2022/05/17 12:31:00;;;;;;;5.97;1.60;;;;;;;26.67;32.48;100297.03;10386738;28;20045;-68
2022/05/17 12:36:14;;;;;;;4.20;1.70;;;;;;;26.61;32.24;100289.75;10386956;28;20186;-67
2022/05/17 12:46:51;;;;;;;4.80;1.70;;;;;;;26.72;32.68;100280.41;10385560;28;20540;-67
2022/05/17 12:51:57;;;;;;;6.20;1.88;;;;;;;26.45;33.88;100285.38;10385026;28;20056;-66
2022/05/17 12:56:59;;;;;;;5.13;1.85;;;;;;;26.47;33.25;100282.50;10385558;28;20045;-67
2022/05/17 13:02:02;;;;;;;4.15;1.63;;;;;;;26.61;34.77;100284.38;10381703;28;20057;-67
2022/05/17 13:07:13;;;;;;;6.85;1.70;;;;;;;26.54;33.11;100276.22;10363749;28;20080;-67
2022/05/17 13:12:14;;;;;;;3.63;1.58;;;;;;;26.47;34.63;100271.78;10383368;28;20203;-67
2022/05/17 13:17:33;;;;;;;5.15;1.60;;;;;;;26.74;31.64;100267.63;10378591;28;20092;-67
2022/05/17 13:22:42;;;;;;;4.57;1.42;;;;;;;26.81;33.64;100261.34;10380000;28;20065;-67
2022/05/17 13:27:48;;;;;;;4.97;1.60;;;;;;;26.91;33.73;100261.88;10379808;28;20053;-66
2022/05/17 13:32:51;;;;;;;4.30;1.50;;;;;;;27.41;32.55;100263.66;10378646;28;20041;-67
2022/05/17 13:38:23;;;;;;;5.15;1.40;;;;;;;27.32;31.19;100262.16;10385588;28;20154;-66
2022/05/17 13:43:34;;;;;;;5.45;1.50;;;;;;;27.48;31.98;100261.88;10383654;28;20058;-66
2022/05/17 13:49:11;;;;;;;6.10;1.42;;;;;;;27.55;31.18;100262.75;10382544;28;20120;-66
2022/05/17 13:54:39;;;;;;;4.55;1.52;;;;;;;27.61;31.52;100250.41;10374557;28;20045;-67
2022/05/17 13:59:49;;;;;;;6.40;1.60;;;;;;;27.14;29.97;100262.56;10380333;28;20187;-66
2022/05/17 14:05:20;;;;;;;4.47;1.73;;;;;;;26.70;32.40;100251.06;10382533;28;20417;-67
2022/05/17 14:15:54;;;;;;;5.10;1.70;;;;;;;26.49;32.21;100242.91;10383798;28;20398;-67
2022/05/17 14:20:58;;;;;;;4.63;1.60;;;;;;;26.52;31.95;100242.56;10378733;28;20049;-67
2022/05/17 14:26:00;;;;;;;4.85;1.40;;;;;;;26.43;32.10;100236.44;10381492;28;20162;-66
2022/05/17 14:31:02;;;;;;;4.25;1.48;;;;;;;25.99;32.00;100238.31;10382671;28;20049;-67
2022/05/17 14:36:10;;;;;;;5.07;1.42;;;;;;;25.97;32.67;100231.44;10382357;28;20148;-66
2022/05/17 14:41:13;;;;;;;4.10;1.40;;;;;;;26.18;32.61;100235.06;10383383;28;20126;-66
2022/05/17 14:46:18;;;;;;;5.80;1.33;;;;;;;26.20;34.09;100237.59;10380727;28;20152;-68
2022/05/17 14:51:26;;;;;;;3.35;1.20;;;;;;;26.14;34.66;100227.59;10382180;28;20140;-67
2022/05/17 14:56:28;;;;;;;5.03;1.38;;;;;;;26.07;34.11;100229.34;10381968;28;20124;-68
2022/05/17 15:01:29;;;;;;;3.40;1.30;;;;;;;26.06;34.47;100214.28;10382357;28;20144;-67
2022/05/17 15:06:48;;;;;;;3.92;1.23;;;;;;;26.04;33.60;100216.31;10379849;28;20133;-68
2022/05/17 15:11:53;;;;;;;6.23;1.30;;;;;;;26.11;33.17;100219.91;10375612;28;20062;-68
2022/05/17 15:16:57;;;;;;;3.33;1.20;;;;;;;26.21;32.94;100204.38;10386472;28;20148;-68
2022/05/17 15:22:00;;;;;;;5.22;1.23;;;;;;;26.12;32.93;100210.88;10385998;28;20045;-67
2022/05/17 15:27:02;;;;;;;3.72;1.30;;;;;;;25.96;33.37;100197.63;10388462;28;20077;-68
2022/05/17 15:32:07;;;;;;;3.78;1.30;;;;;;;25.82;33.93;100196.56;10381783;28;20057;-68
2022/05/17 15:37:12;;;;;;;5.25;1.58;;;;;;;25.87;32.99;100194.97;10366819;28;20049;-67
2022/05/17 15:42:17;;;;;;;3.92;1.20;;;;;;;25.63;33.88;100203.28;10383259;28;20446;-67
2022/05/17 15:58:00;;;;;;;4.28;1.55;;;;;;;25.44;34.12;100193.09;10387172;28;20198;-68
2022/05/17 16:03:03;;;;;;;3.70;1.33;;;;;;;25.45;34.98;100199.25;10385922;28;20053;-67
2022/05/17 16:08:11;;;;;;;5.45;1.60;;;;;;;25.33;35.08;100195.31;10387153;28;20613;-68
2022/05/17 16:13:15;;;;;;;3.70;1.40;;;;;;;25.31;34.49;100194.66;10381768;28;20564;-67
2022/05/17 16:18:24;;;;;;;5.78;1.50;;;;;;;25.20;34.94;100192.41;10384263;28;20144;-68
2022/05/17 16:23:25;;;;;;;3.57;1.50;;;;;;;25.32;35.50;100191.81;10372296;28;20160;-67
2022/05/17 16:28:27;;;;;;;4.15;1.45;;;;;;;25.24;34.51;100191.88;10376189;28;21102;-68
2022/05/17 16:33:31;;;;;;;3.70;1.50;;;;;;;25.30;34.90;100191.16;10383374;28;20573;-67
2022/05/17 16:38:34;;;;;;;5.55;1.60;;;;;;;25.19;34.75;100191.56;10385501;28;20054;-67
2022/05/17 16:43:36;;;;;;;4.30;1.50;;;;;;;25.14;36.12;100177.91;10385637;28;20104;-66
2022/05/17 16:48:41;;;;;;;3.47;1.40;;;;;;;25.22;36.93;100174.34;10385651;28;20855;-67
2022/05/17 16:53:43;;;;;;;4.25;1.92;;;;;;;25.29;35.46;100173.41;10387182;28;20061;-67
2022/05/17 16:58:44;;;;;;;6.80;1.75;;;;;;;25.34;36.87;100171.09;10385541;28;20162;-69
2022/05/17 17:03:48;;;;;;;7.68;1.73;;;;;;;25.16;37.59;100175.88;10383383;28;20049;-67
2022/05/17 17:08:50;;;;;;;3.35;1.70;;;;;;;25.04;37.28;100177.28;10385230;28;20482;-67
2022/05/17 17:13:52;;;;;;;3.63;1.65;;;;;;;24.99;38.01;100177.00;10380354;28;20080;-67
2022/05/17 17:18:56;;;;;;;3.65;1.40;;;;;;;24.91;38.21;100180.59;10386381;28;20136;-67
2022/05/17 17:23:58;;;;;;;12.75;2.38;;;;;;;24.86;38.86;100182.09;10381776;28;20498;-67
2022/05/17 17:29:01;;;;;;;5.13;2.13;;;;;;;24.66;38.85;100181.69;10383916;28;20140;-68
2022/05/17 17:39:25;;;;;;;5.63;1.83;;;;;;;24.18;40.10;100176.59;10374544;28;20061;-68
2022/05/17 17:44:28;;;;;;;4.72;1.90;;;;;;;23.84;40.38;100173.34;10381277;28;20185;-68
2022/05/17 17:49:30;;;;;;;3.55;1.70;;;;;;;23.49;40.97;100179.91;10384953;28;20089;-68
2022/05/17 17:54:32;;;;;;;4.22;1.88;;;;;;;23.20;41.84;100175.03;10366350;28;20134;-69
2022/05/17 17:59:35;;;;;;;5.72;1.80;;;;;;;23.00;42.36;100172.84;10378948;28;20088;-69
2022/05/17 18:04:37;;;;;;;5.57;2.00;;;;;;;22.80;42.72;100182.16;10379730;28;20762;-68
2022/05/17 18:09:38;;;;;;;7.30;2.00;;;;;;;22.65;43.18;100184.56;10381692;28;20136;-69
2022/05/17 18:14:40;;;;;;;6.60;2.00;;;;;;;22.50;43.54;100191.53;10381869;28;20509;-67
2022/05/17 18:19:42;;;;;;;5.97;1.85;;;;;;;22.42;44.35;100189.66;10381816;28;20513;-67
2022/05/17 18:24:44;;;;;;;4.13;1.80;;;;;;;22.34;43.09;100186.13;10382542;28;20488;-66
2022/05/17 18:29:48;;;;;;;6.65;1.83;;;;;;;22.25;43.17;100181.78;10381059;28;20151;-67
2022/05/17 18:34:50;;;;;;;5.60;1.80;;;;;;;22.14;43.48;100198.03;10384220;28;20143;-67
2022/05/17 18:39:52;;;;;;;5.70;2.08;;;;;;;21.74;45.06;100191.44;10383591;28;20457;-66
2022/05/17 18:44:56;;;;;;;4.70;1.80;;;;;;;21.44;44.81;100199.03;10380268;28;20107;-67
2022/05/17 18:49:57;;;;;;;6.68;2.10;;;;;;;21.16;46.14;100198.28;10382704;28;20158;-68
2022/05/17 18:55:02;;;;;;;8.93;2.10;;;;;;;21.03;47.37;100209.28;10382173;28;20488;-67
2022/05/17 19:00:11;;;;;;;4.88;2.10;;;;;;;20.93;48.21;100218.31;10383851;28;20153;-68
2022/05/17 19:05:16;;;;;;;5.10;2.10;;;;;;;20.90;48.23;100219.47;10381713;28;20353;-68
2022/05/17 19:15:39;;;;;;;5.28;1.98;;;;;;;20.66;50.03;100231.66;10376951;28;20049;-67
2022/05/17 19:20:41;;;;;;;6.80;2.25;;;;;;;20.45;51.00;100239.84;10382488;28;20138;-67
2022/05/17 19:25:43;;;;;;;7.45;2.20;;;;;;;20.46;51.15;100243.34;10381643;28;20144;-65
2022/05/17 19:30:45;;;;;;;7.80;2.15;;;;;;;20.39;51.63;100253.72;10371777;28;20478;-65
2022/05/17 19:35:47;;;;;;;4.20;1.92;;;;;;;20.24;52.27;100263.97;10376295;28;20089;-65
2022/05/17 19:40:49;;;;;;;8.32;2.20;;;;;;;20.07;52.94;100271.88;10379760;28;20416;-64
2022/05/17 19:45:54;;;;;;;7.50;2.35;;;;;;;19.95;53.49;100284.44;10376992;28;20057;-64
2022/05/17 19:50:56;;;;;;;6.60;2.20;;;;;;;19.84;53.42;100294.41;10381557;28;20128;-64
2022/05/17 19:55:58;;;;;;;5.30;2.13;;;;;;;19.62;54.17;100289.38;10380354;28;20133;-65
2022/05/17 20:01:00;;;;;;;5.82;2.30;;;;;;;19.18;54.90;100298.69;10390980;28;20561;-63
2022/05/17 20:06:03;;;;;;;6.40;2.50;;;;;;;19.11;55.03;100298.41;10388455;28;20045;-64
2022/05/17 20:11:09;;;;;;;5.50;2.10;;;;;;;19.11;55.72;100297.56;10390342;28;21059;-64
2022/05/17 20:16:12;;;;;;;5.35;2.70;;;;;;;19.07;55.35;100304.97;10388435;28;20127;-64
2022/05/17 20:21:16;;;;;;;7.03;2.30;;;;;;;18.87;55.94;100297.88;10389894;28;20770;-64
2022/05/17 20:26:19;;;;;;;8.32;2.40;;;;;;;18.64;56.41;100310.53;10386363;28;20528;-64
2022/05/17 20:31:21;;;;;;;5.85;2.25;;;;;;;18.65;57.01;100308.69;10382699;28;20037;-65
2022/05/17 20:36:23;;;;;;;8.32;2.40;;;;;;;18.55;56.83;100308.66;10384024;28;20148;-65
2022/05/17 20:41:27;;;;;;;6.15;2.25;;;;;;;18.33;58.03;100297.41;10385536;28;20053;-65
2022/05/17 20:51:50;;;;;;;5.28;2.35;;;;;;;18.33;58.16;100295.59;10384392;28;20579;-65
2022/05/17 20:56:58;;;;;;;6.85;2.70;;;;;;;18.32;58.22;100307.16;10386420;28;20474;-65
2022/05/17 21:02:00;;;;;;;5.90;2.78;;;;;;;17.96;58.50;100310.25;10384079;28;20136;-65
2022/05/17 21:07:04;;;;;;;6.10;2.50;;;;;;;17.92;59.15;100315.91;10384670;28;20053;-64
2022/05/17 21:12:06;;;;;;;6.68;2.47;;;;;;;18.00;58.83;100316.13;10385486;28;20159;-65
2022/05/17 21:17:08;;;;;;;7.85;2.60;;;;;;;17.95;59.10;100316.53;10386686;28;20077;-65
2022/05/17 21:22:10;;;;;;;6.97;2.75;;;;;;;17.98;58.84;100310.13;10387485;28;20055;-66
2022/05/17 21:27:34;;;;;;;8.30;3.28;;;;;;;17.76;59.28;100313.72;10386457;28;20649;-65
2022/05/17 21:32:35;;;;;;;6.70;2.65;;;;;;;17.40;59.92;100320.28;10385485;28;20472;-65
2022/05/17 21:37:38;;;;;;;6.10;2.70;;;;;;;17.47;59.88;100321.44;10385303;28;20057;-65
2022/05/17 21:42:41;;;;;;;6.35;2.65;;;;;;;17.59;59.76;100323.06;10386091;28;20084;-65
2022/05/17 21:47:46;;;;;;;6.78;2.65;;;;;;;17.61;59.63;100320.28;10384322;28;20053;-65
2022/05/17 21:52:49;;;;;;;5.95;2.78;;;;;;;17.58;60.01;100318.75;10384426;28;20461;-65
2022/05/17 21:57:51;;;;;;;7.63;2.88;;;;;;;17.39;59.98;100323.88;10384981;28;20054;-65
2022/05/17 22:02:59;;;;;;;6.72;2.58;;;;;;;17.29;60.26;100330.84;10385742;28;20067;-63
2022/05/17 22:08:03;;;;;;;9.60;2.80;;;;;;;17.31;60.55;100322.78;10384807;28;20136;-65
2022/05/17 22:18:25;;;;;;;;;;;;;;;16.86;61.21;100335.22;10385517;28;20065;-64
2022/05/17 22:23:27;;;;;;;8.98;3.05;;;;;;;17.08;60.85;100344.94;10384199;28;19968;-64
2022/05/17 22:28:29;;;;;;;8.25;2.75;;;;;;;16.97;60.43;100338.72;10384690;28;20128;-65
2022/05/17 22:33:31;;;;;;;4.82;2.78;;;;;;;16.77;61.10;100343.91;10382422;28;20421;-64
2022/05/17 22:38:34;;;;;;;7.50;2.97;;;;;;;16.82;61.22;100349.66;10383446;28;20547;-64
2022/05/17 22:43:37;;;;;;;7.95;3.20;;;;;;;16.74;61.20;100349.41;10384256;28;20085;-63
2022/05/17 22:48:40;;;;;;;8.27;3.33;;;;;;;16.65;60.98;100344.88;10383558;28;20377;-63
2022/05/17 22:53:42;;;;;;;5.40;3.15;;;;;;;16.54;61.39;100340.41;10382650;28;20049;-63
2022/05/17 22:58:45;;;;;;;6.30;3.20;;;;;;;16.23;61.89;100351.63;10382150;28;20542;-64
2022/05/17 23:03:47;;;;;;;7.03;3.00;;;;;;;16.20;62.19;100355.31;10383935;28;20085;-63
2022/05/17 23:08:50;;;;;;;7.32;3.00;;;;;;;16.23;62.08;100351.63;10382290;28;20052;-65
2022/05/17 23:13:52;;;;;;;6.13;3.13;;;;;;;16.24;62.10;100351.50;10382841;28;20053;-63
2022/05/17 23:18:54;;;;;;;8.32;3.50;;;;;;;16.22;62.04;100355.22;10383313;28;20051;-64
2022/05/17 23:23:55;;;;;;;9.25;3.63;;;;;;;15.84;62.44;100358.09;10382423;28;20699;-64
2022/05/17 23:28:57;;;;;;;8.07;3.65;;;;;;;15.61;63.30;100369.53;10382855;28;20052;-64
2022/05/17 23:33:59;;;;;;;9.75;3.40;;;;;;;15.74;63.22;100362.38;10388339;28;20180;-64
2022/05/17 23:39:03;;;;;;;8.60;3.25;;;;;;;15.83;63.10;100369.63;10389473;28;20053;-64
2022/05/17 23:44:05;;;;;;;7.22;3.58;;;;;;;15.71;62.57;100370.53;10390208;28;20045;-64
2022/05/17 23:49:07;;;;;;;6.50;3.42;;;;;;;15.68;62.59;100370.75;10390128;28;21020;-64
2022/05/17 23:54:08;;;;;;;6.88;3.53;;;;;;;15.69;62.87;100380.34;10389200;28;20137;-64
2022/05/17 23:59:12;;;;;;;10.35;3.10;;;;;;;15.68;63.14;100381.28;10372041;28;20759;-64
